createdAt,value
2017-07-19T00:01:48.416Z,73.70
2017-07-19T00:04:15.914Z,73.10
2017-07-19T00:06:43.451Z,73.30
2017-07-19T00:09:10.947Z,74.10
2017-07-19T00:11:38.743Z,74.30
2017-07-19T00:14:06.381Z,75.30
2017-07-19T00:16:33.875Z,75.60
2017-07-19T00:19:01.454Z,76.00
2017-07-19T00:21:28.960Z,76.70
2017-07-19T00:23:56.455Z,77.50
2017-07-19T00:26:24.461Z,77.90
2017-07-19T00:28:51.968Z,78.20
2017-07-19T00:31:19.476Z,78.70
2017-07-19T00:33:47.031Z,79.60
2017-07-19T00:36:14.540Z,79.90
2017-07-19T00:38:42.061Z,80.20
2017-07-19T00:41:09.692Z,81.30
2017-07-19T00:43:37.616Z,81.80
2017-07-19T00:46:05.119Z,82.40
2017-07-19T00:48:32.969Z,82.80
2017-07-19T00:51:00.490Z,82.50
2017-07-19T00:53:27.991Z,83.60
2017-07-19T00:55:55.587Z,84.20
2017-07-19T00:58:22.847Z,84.20
2017-07-19T01:00:50.347Z,84.20
2017-07-19T01:03:17.966Z,84.10
2017-07-19T01:05:45.907Z,83.80
2017-07-19T01:08:14.224Z,83.60
2017-07-19T01:10:41.782Z,84.00
2017-07-19T01:13:09.648Z,84.40
2017-07-19T01:15:37.220Z,85.40
2017-07-19T01:18:04.791Z,85.80
2017-07-19T01:20:32.827Z,85.80
2017-07-19T01:23:00.339Z,85.50
2017-07-19T01:25:27.885Z,85.40
2017-07-19T01:27:55.478Z,86.00
2017-07-19T01:30:22.990Z,86.40
2017-07-19T01:32:50.516Z,87.30
2017-07-19T01:35:18.184Z,86.60
2017-07-19T01:37:45.737Z,86.30
2017-07-19T01:40:13.296Z,87.10
2017-07-19T01:42:41.096Z,88.20
2017-07-19T01:45:09.680Z,88.30
2017-07-19T01:47:37.176Z,88.80
2017-07-19T01:50:04.749Z,89.00
2017-07-19T01:52:32.256Z,88.50
2017-07-19T01:54:59.767Z,88.50
2017-07-19T01:57:27.614Z,87.70
2017-07-19T01:59:55.158Z,88.40
2017-07-19T02:02:22.688Z,88.70
2017-07-19T02:04:50.627Z,88.70
2017-07-19T02:07:17.935Z,88.50
2017-07-19T02:09:45.466Z,87.80
2017-07-19T02:12:13.355Z,87.80
2017-07-19T02:14:40.860Z,88.00
2017-07-19T02:17:08.407Z,88.80
2017-07-19T02:19:35.953Z,87.40
2017-07-19T02:22:03.451Z,85.90
2017-07-19T02:24:31.236Z,86.00
2017-07-19T02:26:58.738Z,86.50
2017-07-19T02:29:26.277Z,86.70
2017-07-19T02:31:53.867Z,88.10
2017-07-19T02:34:21.380Z,88.50
2017-07-19T02:36:48.992Z,88.30
2017-07-19T02:39:16.694Z,89.10
2017-07-19T02:41:44.578Z,89.90
2017-07-19T02:44:12.099Z,90.00
2017-07-19T02:46:39.650Z,90.20
2017-07-19T02:49:07.157Z,90.00
2017-07-19T02:51:34.694Z,90.10
2017-07-19T02:54:02.588Z,90.10
2017-07-19T02:56:30.095Z,90.20
2017-07-19T02:58:57.594Z,90.00
2017-07-19T03:01:25.380Z,90.30
2017-07-19T03:03:52.884Z,90.00
2017-07-19T03:06:20.445Z,90.10
2017-07-19T03:08:48.344Z,90.00
2017-07-19T03:11:15.839Z,90.00
2017-07-19T03:13:43.492Z,90.50
2017-07-19T03:16:11.335Z,90.80
2017-07-19T03:18:38.836Z,90.90
2017-07-19T03:21:06.341Z,91.20
2017-07-19T03:23:34.170Z,91.30
2017-07-19T03:26:01.678Z,91.10
2017-07-19T03:28:29.182Z,91.10
2017-07-19T03:30:56.964Z,90.90
2017-07-19T03:33:24.462Z,90.60
2017-07-19T03:35:52.851Z,91.10
2017-07-19T03:38:20.377Z,90.90
2017-07-19T03:40:47.884Z,90.40
2017-07-19T03:43:15.420Z,90.50
2017-07-19T03:45:43.675Z,90.80
2017-07-19T03:48:11.215Z,91.30
2017-07-19T03:50:38.795Z,90.70
2017-07-19T03:53:06.326Z,90.20
2017-07-19T03:55:33.915Z,90.00
2017-07-19T03:58:01.552Z,89.70
2017-07-19T04:00:29.399Z,89.60
2017-07-19T04:02:57.222Z,89.60
2017-07-19T04:05:24.863Z,89.50
2017-07-19T04:07:52.447Z,89.40
2017-07-19T04:10:19.992Z,88.90
2017-07-19T04:12:47.668Z,88.90
2017-07-19T04:15:15.874Z,88.90
2017-07-19T04:17:43.516Z,88.80
2017-07-19T04:20:11.068Z,88.60
2017-07-19T04:22:38.633Z,88.40
2017-07-19T04:25:06.143Z,87.80
2017-07-19T04:27:33.643Z,86.50
2017-07-19T04:30:01.256Z,85.00
2017-07-19T04:32:28.821Z,83.80
2017-07-19T04:34:56.323Z,82.30
2017-07-19T04:37:24.047Z,80.30
2017-07-19T04:39:51.582Z,78.40
2017-07-19T04:42:19.114Z,75.50
2017-07-19T04:44:46.679Z,74.70
2017-07-19T04:47:14.255Z,73.20
2017-07-19T04:49:42.412Z,70.40
2017-07-19T04:52:10.007Z,68.10
2017-07-19T04:54:37.566Z,67.00
2017-07-19T04:57:05.085Z,64.60
2017-07-19T04:59:32.744Z,63.50
2017-07-19T05:02:00.260Z,64.60
2017-07-19T05:04:27.764Z,63.40
2017-07-19T05:06:55.580Z,62.50
2017-07-19T05:09:23.100Z,61.70
2017-07-19T05:11:50.639Z,59.70
2017-07-19T05:14:18.464Z,59.90
2017-07-19T05:16:45.975Z,59.70
2017-07-19T05:19:13.491Z,58.70
2017-07-19T05:21:41.291Z,58.60
2017-07-19T05:24:08.807Z,57.80
2017-07-19T05:26:36.439Z,59.40
2017-07-19T05:29:03.964Z,61.40
2017-07-19T05:31:31.498Z,62.00
2017-07-19T05:33:59.059Z,63.80
2017-07-19T05:36:26.572Z,66.40
2017-07-19T05:38:54.103Z,68.70
2017-07-19T05:41:21.798Z,69.30
2017-07-19T05:43:49.297Z,69.90
2017-07-19T05:46:16.825Z,69.90
2017-07-19T05:48:44.635Z,69.90
2017-07-19T05:51:12.147Z,70.80
2017-07-19T05:53:39.683Z,71.50
2017-07-19T05:56:07.360Z,71.90
2017-07-19T05:58:34.855Z,73.50
2017-07-19T06:01:02.360Z,73.80
2017-07-19T06:03:29.887Z,73.10
2017-07-19T06:05:57.435Z,72.10
2017-07-19T06:08:24.963Z,72.10
2017-07-19T06:10:53.032Z,71.70
2017-07-19T06:13:20.518Z,70.20
2017-07-19T06:15:48.404Z,68.60
2017-07-19T06:18:16.397Z,68.00
2017-07-19T06:20:44.168Z,67.80
2017-07-19T06:23:11.682Z,68.40
2017-07-19T06:25:39.264Z,68.50
2017-07-19T06:28:07.196Z,69.10
2017-07-19T06:30:35.151Z,69.10
2017-07-19T06:33:04.180Z,68.30
2017-07-19T06:35:31.590Z,63.80
2017-07-19T06:37:59.147Z,61.50
2017-07-19T06:40:26.479Z,57.50
2017-07-19T06:42:54.911Z,55.10
2017-07-19T06:45:22.569Z,55.90
2017-07-19T06:47:49.971Z,55.30
2017-07-19T06:50:17.732Z,56.20
2017-07-19T06:52:45.423Z,55.50
2017-07-19T06:55:12.967Z,54.30
2017-07-19T06:57:40.484Z,52.50
2017-07-19T07:00:08.297Z,50.60
2017-07-19T07:02:35.802Z,51.30
2017-07-19T07:05:03.315Z,50.60
2017-07-19T07:07:30.869Z,49.00
2017-07-19T07:09:58.421Z,46.90
2017-07-19T07:12:25.941Z,46.00
2017-07-19T07:14:53.747Z,45.10
2017-07-19T07:17:21.252Z,45.00
2017-07-19T07:19:49.192Z,45.90
2017-07-19T07:22:16.748Z,46.50
2017-07-19T07:24:44.255Z,44.40
2017-07-19T07:27:12.528Z,45.60
2017-07-19T07:29:39.866Z,45.60
2017-07-19T07:32:07.390Z,45.60
2017-07-19T07:34:34.903Z,43.90
2017-07-19T07:37:02.719Z,42.50
2017-07-19T07:39:30.219Z,41.30
2017-07-19T07:41:57.762Z,42.20
2017-07-19T07:44:25.359Z,42.20
2017-07-19T07:46:52.871Z,41.10
2017-07-19T07:49:20.372Z,39.70
2017-07-19T07:51:47.919Z,38.30
2017-07-19T07:54:15.558Z,36.00
2017-07-19T07:56:43.194Z,35.40
2017-07-19T07:59:11.060Z,34.70
2017-07-19T08:01:38.583Z,34.10
2017-07-19T08:04:06.198Z,36.90
2017-07-19T08:06:33.764Z,36.80
2017-07-19T08:09:01.323Z,36.10
2017-07-19T08:11:28.836Z,35.30
2017-07-19T08:13:56.653Z,35.30
2017-07-19T08:16:24.217Z,35.40
2017-07-19T08:18:51.735Z,35.10
2017-07-19T08:21:19.289Z,35.90
2017-07-19T08:23:46.792Z,35.80
2017-07-19T08:26:14.335Z,35.90
2017-07-19T08:28:42.157Z,35.40
2017-07-19T08:31:09.675Z,33.10
2017-07-19T08:33:37.230Z,31.80
2017-07-19T08:36:05.175Z,31.90
2017-07-19T08:38:32.688Z,32.00
2017-07-19T08:41:00.197Z,32.10
2017-07-19T08:43:27.752Z,32.40
2017-07-19T08:45:55.255Z,32.50
2017-07-19T08:48:23.063Z,31.90
2017-07-19T08:50:50.672Z,31.10
2017-07-19T08:53:18.247Z,31.10
2017-07-19T08:55:46.131Z,30.70
2017-07-19T08:58:13.639Z,29.80
2017-07-19T09:00:41.175Z,29.90
2017-07-19T09:03:08.724Z,29.60
2017-07-19T09:05:36.228Z,30.00
2017-07-19T09:08:03.759Z,30.50
2017-07-19T09:10:31.321Z,29.50
2017-07-19T09:12:58.849Z,28.50
2017-07-19T09:15:26.351Z,28.50
2017-07-19T09:17:53.916Z,29.10
2017-07-19T09:20:21.508Z,28.90
2017-07-19T09:22:49.011Z,28.50
2017-07-19T09:25:16.879Z,28.80
2017-07-19T09:27:44.379Z,29.80
2017-07-19T09:30:11.882Z,30.40
2017-07-19T09:32:39.496Z,29.20
2017-07-19T09:35:07.035Z,28.60
2017-07-19T09:37:34.531Z,28.60
2017-07-19T09:40:02.093Z,28.50
2017-07-19T09:42:29.595Z,28.90
2017-07-19T09:44:57.099Z,29.20
2017-07-19T09:47:24.994Z,28.30
2017-07-19T09:49:52.595Z,27.80
2017-07-19T09:52:20.100Z,26.70
2017-07-19T09:54:47.950Z,26.90
2017-07-19T09:57:15.459Z,27.40
2017-07-19T09:59:42.959Z,26.80
2017-07-19T10:02:10.511Z,26.70
2017-07-19T10:04:38.016Z,26.40
2017-07-19T10:07:05.621Z,26.50
2017-07-19T10:09:33.173Z,26.40
2017-07-19T10:12:00.690Z,25.50
2017-07-19T10:14:28.190Z,25.40
2017-07-19T10:16:55.984Z,24.80
2017-07-19T10:19:23.522Z,24.80
2017-07-19T10:21:51.048Z,25.00
2017-07-19T10:24:18.796Z,24.80
2017-07-19T10:26:46.441Z,24.70
2017-07-19T10:29:15.491Z,23.70
2017-07-19T10:31:43.478Z,23.70
2017-07-19T10:34:11.030Z,22.90
2017-07-19T10:36:38.544Z,23.60
2017-07-19T10:39:06.139Z,24.10
2017-07-19T10:41:33.644Z,23.40
2017-07-19T10:44:01.224Z,23.10
2017-07-19T10:46:28.830Z,23.30
2017-07-19T10:48:56.497Z,23.30
2017-07-19T10:51:23.999Z,23.50
2017-07-19T10:53:51.842Z,22.50
2017-07-19T10:56:19.347Z,24.10
2017-07-19T10:58:46.857Z,23.80
2017-07-19T11:01:14.451Z,24.60
2017-07-19T11:03:42.058Z,25.60
2017-07-19T11:06:09.591Z,25.20
2017-07-19T11:08:37.188Z,24.10
2017-07-19T11:11:04.687Z,23.60
2017-07-19T11:13:32.200Z,24.60
2017-07-19T11:15:59.815Z,24.20
2017-07-19T11:18:27.348Z,24.70
2017-07-19T11:20:55.223Z,25.70
2017-07-19T11:23:23.092Z,25.40
2017-07-19T11:25:50.985Z,24.30
2017-07-19T11:28:18.851Z,25.00
2017-07-19T11:30:46.692Z,25.00
2017-07-19T11:33:14.623Z,24.20
2017-07-19T11:35:42.403Z,23.70
2017-07-19T11:38:10.347Z,22.90
2017-07-19T11:40:38.163Z,23.20
2017-07-19T11:43:05.779Z,23.50
2017-07-19T11:45:33.601Z,23.40
2017-07-19T11:48:01.316Z,22.50
2017-07-19T11:50:28.995Z,22.90
2017-07-19T11:52:57.598Z,22.70
2017-07-19T11:55:25.144Z,22.20
2017-07-19T11:57:52.707Z,23.30
2017-07-19T12:00:20.259Z,24.40
2017-07-19T12:02:47.777Z,24.90
2017-07-19T12:05:15.284Z,25.50
2017-07-19T12:07:42.836Z,25.50
2017-07-19T12:10:10.441Z,25.00
2017-07-19T12:12:37.951Z,26.50
2017-07-19T12:15:05.527Z,25.80
2017-07-19T12:17:33.163Z,26.20
2017-07-19T12:20:00.689Z,25.90
2017-07-19T12:22:28.398Z,25.50
2017-07-19T12:24:56.184Z,24.70
2017-07-19T12:27:23.737Z,25.00
2017-07-19T12:29:51.881Z,24.60
2017-07-19T12:32:19.705Z,23.90
2017-07-19T12:34:47.208Z,24.30
2017-07-19T12:37:14.762Z,24.70
2017-07-19T12:39:42.514Z,24.60
2017-07-19T12:42:09.539Z,24.80
2017-07-19T12:44:37.414Z,25.20
2017-07-19T12:47:05.738Z,24.70
2017-07-19T12:49:32.869Z,23.50
2017-07-19T12:52:00.651Z,23.30
2017-07-19T12:54:28.952Z,22.60
2017-07-19T12:56:56.755Z,22.10
2017-07-19T12:59:24.702Z,21.60
2017-07-19T13:01:52.431Z,21.60
2017-07-19T13:04:19.571Z,21.50
2017-07-19T13:06:47.346Z,21.40
2017-07-19T13:09:15.234Z,20.80
2017-07-19T13:11:42.257Z,20.60
2017-07-19T13:14:09.775Z,20.90
2017-07-19T13:16:37.391Z,21.50
2017-07-19T13:19:04.744Z,22.00
2017-07-19T13:21:32.575Z,22.10
2017-07-19T13:24:00.078Z,22.10
2017-07-19T13:26:27.892Z,21.50
2017-07-19T13:28:55.403Z,21.60
2017-07-19T13:31:22.917Z,21.00
2017-07-19T13:33:50.730Z,20.40
2017-07-19T13:36:17.761Z,20.60
2017-07-19T13:38:45.259Z,20.60
2017-07-19T13:41:12.908Z,20.60
2017-07-19T13:43:40.426Z,21.70
2017-07-19T13:46:07.940Z,21.30
2017-07-19T13:48:35.656Z,20.60
2017-07-19T13:51:03.214Z,20.40
2017-07-19T13:53:30.725Z,21.30
2017-07-19T13:55:58.284Z,21.10
2017-07-19T13:58:25.807Z,20.70
2017-07-19T14:00:53.371Z,20.80
2017-07-19T14:03:20.927Z,20.50
2017-07-19T14:05:48.467Z,21.30
2017-07-19T14:08:15.971Z,21.80
2017-07-19T14:10:43.867Z,22.30
2017-07-19T14:13:11.367Z,22.80
2017-07-19T14:15:38.926Z,22.60
2017-07-19T14:18:06.508Z,22.70
2017-07-19T14:20:34.032Z,22.30
2017-07-19T14:23:01.564Z,22.50
2017-07-19T14:25:29.160Z,22.40
2017-07-19T14:27:56.658Z,22.80
2017-07-19T14:30:24.160Z,22.20
2017-07-19T14:32:51.968Z,22.80
2017-07-19T14:35:19.524Z,23.00
2017-07-19T14:37:47.026Z,23.50
2017-07-19T14:40:14.588Z,22.80
2017-07-19T14:42:42.104Z,22.90
2017-07-19T14:45:09.675Z,23.50
2017-07-19T14:47:37.250Z,23.50
2017-07-19T14:50:04.966Z,24.00
2017-07-19T14:52:32.476Z,24.30
2017-07-19T14:55:00.346Z,23.70
2017-07-19T14:57:27.851Z,23.30
2017-07-19T14:59:55.445Z,22.20
2017-07-19T15:02:23.056Z,21.10
2017-07-19T15:04:50.927Z,21.60
2017-07-19T15:07:18.452Z,21.90
2017-07-19T15:09:46.009Z,22.10
2017-07-19T15:12:13.561Z,22.00
2017-07-19T15:14:41.399Z,22.50
2017-07-19T15:17:08.963Z,22.40
2017-07-19T15:19:36.578Z,23.30
2017-07-19T15:22:04.118Z,23.10
2017-07-19T15:24:32.038Z,23.50
2017-07-19T15:26:59.734Z,23.40
2017-07-19T15:29:27.240Z,23.40
2017-07-19T15:31:54.817Z,23.20
2017-07-19T15:34:22.327Z,23.00
2017-07-19T15:36:49.859Z,23.00
2017-07-19T15:39:17.471Z,23.10
2017-07-19T15:41:44.991Z,23.50
2017-07-19T15:44:12.984Z,24.00
2017-07-19T15:46:40.499Z,24.80
2017-07-19T15:49:08.080Z,25.50
2017-07-19T15:51:35.897Z,26.20
2017-07-19T15:54:03.415Z,27.00
2017-07-19T15:56:30.967Z,27.60
2017-07-19T15:58:58.556Z,27.80
2017-07-19T16:01:26.070Z,28.90
2017-07-19T16:03:53.652Z,29.00
2017-07-19T16:06:21.227Z,29.60
2017-07-19T16:08:48.775Z,30.00
2017-07-19T16:11:16.388Z,30.40
2017-07-19T16:13:44.031Z,30.90
2017-07-19T16:16:11.544Z,31.40
2017-07-19T16:18:39.068Z,31.40
2017-07-19T16:21:07.419Z,32.00
2017-07-19T16:23:34.984Z,32.30
2017-07-19T16:26:02.520Z,32.10
2017-07-19T16:28:30.098Z,32.10
2017-07-19T16:30:57.612Z,31.30
2017-07-19T16:33:25.553Z,31.10
2017-07-19T16:35:53.149Z,32.90
2017-07-19T16:38:20.656Z,32.90
2017-07-19T16:40:48.243Z,34.30
2017-07-19T16:43:15.859Z,34.40
2017-07-19T16:45:43.382Z,34.40
2017-07-19T16:48:11.018Z,34.40
2017-07-19T16:50:39.219Z,33.90
2017-07-19T16:53:06.908Z,34.00
2017-07-19T16:55:34.447Z,35.00
2017-07-19T16:58:02.584Z,35.60
2017-07-19T17:00:30.344Z,36.90
2017-07-19T17:02:57.948Z,37.50
2017-07-19T17:05:25.496Z,38.00
2017-07-19T17:07:53.021Z,38.80
2017-07-19T17:10:20.548Z,38.70
2017-07-19T17:12:48.197Z,39.10
2017-07-19T17:15:15.711Z,39.30
2017-07-19T17:17:43.240Z,38.90
2017-07-19T17:20:10.800Z,39.20
2017-07-19T17:22:38.419Z,38.70
2017-07-19T17:25:05.940Z,38.40
2017-07-19T17:27:33.771Z,38.20
2017-07-19T17:30:01.335Z,37.80
2017-07-19T17:32:28.871Z,38.70
2017-07-19T17:34:56.539Z,39.20
2017-07-19T17:37:24.051Z,39.70
2017-07-19T17:39:51.579Z,38.90
2017-07-19T17:42:19.340Z,38.90
2017-07-19T17:44:47.447Z,38.80
2017-07-19T17:47:15.423Z,38.60
2017-07-19T17:49:43.005Z,38.80
2017-07-19T17:52:10.525Z,39.10
2017-07-19T17:54:38.038Z,39.30
2017-07-19T17:57:05.842Z,40.00
2017-07-19T17:59:33.411Z,40.30
2017-07-19T18:02:00.919Z,40.90
2017-07-19T18:04:28.483Z,41.50
2017-07-19T18:06:56.036Z,41.80
2017-07-19T18:09:23.563Z,42.30
2017-07-19T18:11:51.364Z,42.00
2017-07-19T18:14:18.883Z,42.20
2017-07-19T18:16:46.395Z,42.60
2017-07-19T18:19:14.004Z,42.60
2017-07-19T18:21:41.532Z,43.20
2017-07-19T18:24:09.043Z,42.70
2017-07-19T18:26:36.942Z,43.20
2017-07-19T18:29:04.462Z,43.20
2017-07-19T18:31:31.994Z,43.40
2017-07-19T18:33:59.618Z,43.80
2017-07-19T18:36:27.167Z,43.90
2017-07-19T18:38:54.678Z,44.80
2017-07-19T18:41:22.343Z,44.90
2017-07-19T18:43:50.012Z,44.90
2017-07-19T18:46:17.524Z,45.50
2017-07-19T18:48:44.851Z,45.70
2017-07-19T18:51:12.466Z,45.80
2017-07-19T18:53:40.288Z,46.20
2017-07-19T18:56:07.804Z,46.00
2017-07-19T18:58:35.727Z,45.90
2017-07-19T19:01:04.172Z,46.30
2017-07-19T19:03:31.695Z,46.80
2017-07-19T19:05:59.444Z,46.80
2017-07-19T19:08:26.943Z,47.20
2017-07-19T19:10:54.451Z,48.00
2017-07-19T19:13:22.236Z,48.20
2017-07-19T19:15:49.755Z,48.30
2017-07-19T19:18:17.439Z,47.90
2017-07-19T19:20:45.147Z,48.90
2017-07-19T19:23:12.755Z,49.00
2017-07-19T19:25:40.395Z,48.20
2017-07-19T19:28:08.255Z,49.20
2017-07-19T19:30:36.039Z,49.90
2017-07-19T19:33:03.591Z,50.30
2017-07-19T19:35:31.104Z,50.90
2017-07-19T19:37:58.786Z,50.90
2017-07-19T19:40:26.329Z,51.00
2017-07-19T19:42:53.904Z,51.30
2017-07-19T19:45:21.469Z,50.50
2017-07-19T19:47:49.099Z,49.60
2017-07-19T19:50:16.615Z,49.00
2017-07-19T19:52:44.507Z,45.40
2017-07-19T19:55:12.044Z,43.60
2017-07-19T19:57:39.547Z,44.10
2017-07-19T20:00:07.384Z,43.90
2017-07-19T20:02:35.015Z,45.00
2017-07-19T20:05:02.933Z,46.20
2017-07-19T20:07:30.508Z,46.90
2017-07-19T20:09:58.218Z,48.20
2017-07-19T20:12:25.759Z,50.10
2017-07-19T20:14:53.419Z,53.60
2017-07-19T20:17:21.147Z,57.50
2017-07-19T20:19:48.874Z,59.50
2017-07-19T20:22:16.483Z,61.30
2017-07-19T20:24:44.048Z,68.70
2017-07-19T20:27:11.651Z,77.80
2017-07-19T20:29:39.188Z,85.00
2017-07-19T20:32:07.010Z,90.20
2017-07-19T20:34:34.936Z,93.70
2017-07-19T20:37:02.452Z,94.40
2017-07-19T20:39:30.280Z,95.90
2017-07-19T20:41:57.844Z,97.20
2017-07-19T20:44:25.371Z,98.50
2017-07-19T20:46:53.035Z,97.40
2017-07-19T20:49:21.124Z,98.10
2017-07-19T20:51:48.744Z,97.40
2017-07-19T20:54:16.696Z,98.20
2017-07-19T20:56:44.199Z,97.00
2017-07-19T20:59:11.739Z,99.20
2017-07-19T21:01:39.312Z,99.00
2017-07-19T21:04:06.826Z,99.70
2017-07-19T21:06:35.238Z,99.10
2017-07-19T21:09:03.699Z,99.60
2017-07-19T21:11:32.307Z,98.90
2017-07-19T21:14:00.101Z,97.90
2017-07-19T21:16:27.712Z,97.30
2017-07-19T21:18:55.276Z,97.50
2017-07-19T21:21:22.990Z,97.90
2017-07-19T21:23:51.344Z,97.90
2017-07-19T21:26:19.790Z,97.90
2017-07-19T21:28:47.783Z,98.10
2017-07-19T21:31:15.382Z,98.30
2017-07-19T21:33:43.639Z,98.40
2017-07-19T21:36:11.314Z,99.10
2017-07-19T21:38:38.860Z,99.60
2017-07-19T21:41:06.506Z,99.70
2017-07-19T21:43:34.054Z,99.90
2017-07-19T21:46:01.601Z,99.90
2017-07-19T21:48:29.276Z,99.90
2017-07-19T21:50:56.870Z,99.70
2017-07-19T21:53:24.434Z,99.90
2017-07-19T21:55:52.429Z,99.90
2017-07-19T21:58:19.979Z,99.90
2017-07-19T22:00:47.532Z,99.80
2017-07-19T22:03:15.296Z,99.90
2017-07-19T22:05:42.870Z,99.10
2017-07-19T22:08:10.503Z,99.30
2017-07-19T22:10:38.464Z,99.90
2017-07-19T22:13:06.025Z,99.90
2017-07-19T22:15:33.581Z,99.90
2017-07-19T22:18:01.285Z,99.90
2017-07-19T22:20:28.851Z,99.90
2017-07-19T22:22:56.411Z,99.90
2017-07-19T22:25:24.536Z,99.90
2017-07-19T22:27:52.093Z,99.90
2017-07-19T22:30:19.708Z,99.90
2017-07-19T22:32:47.985Z,99.90
2017-07-19T22:35:15.565Z,99.90
2017-07-19T22:37:43.141Z,99.90
2017-07-19T22:40:11.417Z,99.90
2017-07-19T22:42:39.037Z,99.90
2017-07-19T22:45:06.594Z,99.90
2017-07-19T22:47:34.197Z,99.90
2017-07-19T22:50:01.857Z,99.90
2017-07-19T22:52:29.432Z,99.90
2017-07-19T22:54:57.118Z,99.90
2017-07-19T22:57:25.063Z,99.90
2017-07-19T22:59:52.603Z,99.90
2017-07-19T23:02:20.397Z,99.90
2017-07-19T23:04:47.960Z,99.90
2017-07-19T23:07:15.515Z,99.90
2017-07-19T23:09:43.175Z,99.90
2017-07-19T23:12:10.718Z,99.90
2017-07-19T23:14:38.266Z,99.90
2017-07-19T23:17:05.905Z,99.90
2017-07-19T23:19:33.578Z,99.90
2017-07-19T23:22:01.127Z,99.90
2017-07-19T23:24:28.744Z,99.90
2017-07-19T23:26:56.297Z,99.90
2017-07-19T23:29:23.860Z,99.90
2017-07-19T23:31:51.506Z,99.90
2017-07-19T23:34:19.369Z,99.90
2017-07-19T23:36:46.917Z,99.90
2017-07-19T23:39:14.761Z,99.90
2017-07-19T23:41:42.317Z,99.90
2017-07-19T23:44:09.861Z,99.90
2017-07-19T23:46:37.475Z,99.90
2017-07-19T23:49:05.021Z,99.90
2017-07-19T23:51:32.585Z,99.90
2017-07-19T23:54:00.425Z,99.90
2017-07-19T23:56:27.965Z,99.90
2017-07-19T23:58:55.546Z,99.90
